Extreme weather reports worldwide

Atmospheric pressure

Low pressure

Station
 
Location
 
Name
 
Wind
Knots
Gust
Knots
Vis
SM
Temp/Dew
C
Baro
inHg
METAR
 
YER CYER Fort Severn, CA Fort Severn Airport 11 21 9 19/12 29.25 CYER 171900Z AUTO 23011G21KT 9SM OVC042 19/12 A2925 RMK SLP906 DENSITY ALT 1300FT
YPO CYPO Peawanuck, CA Peawanuck Airport 13 23 9 26/9 29.30 CYPO 171900Z AUTO 25013G23KT 9SM FEW081 SCT097 26/09 A2930 RMK SLP920 DENSITY ALT 2200FT
HRB ZYHB Harbin, CN Taiping Airport 4 6.21 15/14 29.32 ZYHB 172000Z 16002MPS 120V200 9999 -RA OVC020 15/14 Q0993 NOSIG
HTA UIAA Chita, RU Chita-Kadala Airport 17 27 6.21 15/5 29.35 UIAA 172000Z 33009G14MPS 9999 NSC 15/05 Q0994 R29/CLRD70 NOSIG RMK QFE688/0917
BQS UHBB Blagoveschensk, RU Ignatyevo Airport 8 6.21 14/14 29.35 UHBB 172000Z 15004MPS 9999 FEW033 14/14 Q0994 R18/090060 NOSIG RMK QFE730/0974

Station
 
Location
 
Name
 
Wind
Knots
Gust
Knots
Vis
SM
Temp/Dew
C
Baro
inHg
METAR
 
KQEY 2 2.98 19/19 29.36 KQEY 172000Z AUTO 30002KT 4800 -RA OVC016 19/19 A2936 RMK A02 TSNO
YTL CYTL Big Trout Lake, CA Big Trout Lake Airport 11 17 9 19/10 29.37 CYTL 171900Z AUTO 25011G17KT 9SM FEW096 19/10 A2937 RMK SLP951 DENSITY ALT 2000FT
MCT OOMS Muscat, OM Muscat International Airport 5 6.21 33/27 29.38 OOMS 171950Z 04005KT CAVOK 33/27 Q0995 NOSIG
YSK CYSK Sanikiluaq, CA Sanikiluaq Airport 20 10 4/2 29.38 CYSK 171947Z 10020KT 10SM BKN048 04/02 A2938 RMK SC7 PRESFR SLP954
YGX CYGX Gillam, CA Gillam Airport 23 3 6/5 29.38 CYGX 171900Z 01023KT 3SM -DZ FEW005 OVC008 06/05 A2938 RMK CF1ST8 CF TR SLP956
MSA CZMD Muskrat Dam, CA Muskrat Dam Airport 24 36 9 23/4 29.39 CZMD 171900Z AUTO 25024G36KT 9SM BKN091 BKN130 23/04 A2939 RMK LTNG DIST E SLP956 DENSITY ALT 2600FT
YAT CYAT Attawapiskat, CA Attawapiskat Airport 9 16 9 25/16 29.40 CYAT 171900Z AUTO 23009G16KT 190V260 9SM CLR 25/16 A2940 RMK SLP957 DENSITY ALT 1800FT
CGQ ZYCC Changchun, CN Longjia Airport 10 6.21 13/9 29.41 ZYCC 172000Z 24005MPS 9999 FEW030 13/09 Q0996 NOSIG
OIKQ IR Dayrestan Airport 10 2.49 31/29 29.41 OIKQ 172000Z 22010KT 4000 BR NSC 31/29 Q0996
BND OIKB Bandar Abbas, IR Bandar Abbas International Airport 6 2.8 32/28 29.41 OIKB 172000Z 20006KT 4500 HZ NSC 32/28 Q0996 A2943
KIH OIBK Kish Island, IR Kish International Airport 4 3.11 30/27 29.41 OIBK 172000Z 28004KT 5000 BR NSC 30/27 Q0996
YGW CYGW Kuujjuarapik, CA Kuujjuarapik Airport 7 9 15/5 29.42 CYGW 171930Z AUTO 14007KT 9SM -RA FEW047 BKN076 OVC096 15/05 A2942 RMK SLP964 DENSITY ALT 700FT
NJC USNN Nizhnevartovsk, RU Nizhnevartovsk Airport 4 6.21 17/16 29.44 USNN 172000Z 09002MPS 9999 SCT030CB 17/16 Q0997 R03/290256 NOSIG RMK QFE744
SKZ OPSK Mirpur Khas, PK Sukkur Airport 10 3.11 27/23 29.44 OPSK 172000Z 09010KT 5000 HZ FEW040 SCT100 27/23 Q0997 NOSIG
FJR OMFJ AE Fujairah International Airport 9 3.73 35/24 29.44 OMFJ 172000Z 31009KT 290V350 6000 NSC 35/24 Q0997 A2944
AWZ OIAW Ahwaz, IR Ahwaz Airport 10 6.21 33/4 29.44 OIAW 172000Z 28010KT CAVOK 33/04 Q0997
WNS OPNH Nawabashah, PK Shaheed Benazirabad Airport 6 2.49 29/21 29.44 OPNH 171955Z 36006KT 4000M HZ NSC 29/21 Q0997 NOSIG
ZSJ CZSJ Sandy Lake, CA Sandy Lake Airport 15 36 9 24/4 29.45 CZSJ 171900Z AUTO 27015G36KT 230V290 9SM BKN096 BKN200 24/04 A2945 RMK SLP977 DENSITY ALT 2800FT
CYKP 12 19 9 29/7 29.46 CYKP 171900Z AUTO 27012G19KT 190V300 9SM CLR 29/07 A2946 RMK SLP970 DENSITY ALT 2900FT
PAT VEPT Patna, IN Lok Nayak Jayaprakash Airport 11 1.86 24/21 29.47 VEPT 172000Z 11011KT 3000 -RA SCT018 BKN100 24/21 Q0998 NOSIG
NSK UOOO Norilsk, RU Norilsk-Alykel Airport 8 6.21 12/12 29.47 UOOO 172000Z 17004MPS 9999 SCT004 BKN017 12/12 Q0998 R19/CLRD60 NOSIG RMK QFE733/0977
TNM SCRM Isla Rey Jorge, AQ Teniente Rodolfo Marsh Martin Base 16 4.97 -1/-2 29.47 SCRM 172000Z 28016KT 8000 VCFG FEW030 BKN080 OVC100 M01/M02 Q0998 NOSIG
SHJ OMSJ Sharjah, AE Sharjah International Airport 6 4.35 32/26 29.47 OMSJ 172000Z 22006KT 190V310 7000 FEW022 32/26 Q0998 NOSIG
RKT OMRK Ras Al Khaimah, AE Ras Al Khaimah International Airport 5 4.35 32/25 29.47 OMRK 172000Z 20005KT 7000 NSC 32/25 Q0998 A2949
DXB OMDB Dubai, AE Dubai International Airport 6 4.97 32/26 29.47 OMDB 172000Z 25006KT 8000 SCT020 32/26 Q0998 NOSIG
AZI OMAD AE Bateen Airport 8 6.21 31/24 29.47 OMAD 172000Z 30008KT CAVOK 31/24 Q0998 NOSIG
AUH OMAA Abu Dhabi, AE Abu Dhabi International Airport 9 6.21 31/26 29.47 OMAA 172000Z 29009KT CAVOK 31/26 Q0998 NOSIG
MRX OIAM IR Mahshahr Airport 12 3.73 33/10 29.47 OIAM 172000Z 28012KT 6000 NSC 33/10 Q0998
OODQ 20 6.21 26/24 29.47 OODQ 171950Z AUTO 21020KT 9999 SCT036 OVC041 26/24 Q0998 NOSIG
YLH CYLH Lansdowne House, CA Lansdowne House Airport 12 19 9 26/6 29.47 CYLH 171900Z AUTO 26012G19KT 9SM BKN091 BKN110 26/06 A2947 RMK SLP982 DENSITY ALT 2800FT
CWRX 7 2/1 29.47 CWRX 171900Z AUTO 31007KT 300V360 ////SM OVC003 02/01 A2947
YTE CYTE Cape Dorset, CA Cape Dorset Airport 9 7 1/1 29.49 CYTE 171948Z AUTO 25009KT 7SM -SN BKN007 OVC012 01/01 A2949 RMK SLP993
CWLX 15 20 0/0 29.49 CWLX 171900Z AUTO 17015G20KT ////SM OVC002 00/M00 A2949
BBI VEBS Bhubaneswar, IN Biju Patnaik Airport 6 2.17 28/27 29.50 VEBS 172000Z 21006KT 3500 -RA FEW012 BKN018 OVC090 28/27 Q0999 NOSIG
SGC USRR Surgut, RU Surgut Airport 14 6.21 14/13 29.50 USRR 172000Z 34007MPS 9999 -SHRA SCT005 OVC015CB 14/13 Q0999 R25/250550 NOSIG RMK OBST OBSC QFE744
DWC OMDW Jebel Ali, AE Al Maktoum International Airport 6 4.97 31/27 29.50 OMDW 172000Z 24006KT 8000 SCT020 31/27 Q0999 NOSIG
DHA OEDR SA King Abdulaziz Air Base 17 0.93 37/7 29.50 OEDR 172000Z 32017KT 1500 BLDU NSC 37/07 Q0999 NOSIG
DIA OTBD Doha, QA Doha International Airport 15 1.37 36/13 29.50 OTBD 171930Z 31015KT 280V340 2200 DRDU NSC 36/13 Q0999 NOSIG
GAY VEGY IN Gaya Airport 0 1.55 26/25 29.50 VEGY 171900Z 00000KT 2500 BR SCT018 BKN100 26/25 Q0999
DOH OTHH Doha, QA Hamad International Airport 20 1.55 35/13 29.50 OTHH 171900Z 32020KT 2500 BLDU NSC 35/13 Q0999 NOSIG
ZEM CZEM Eastmain River, CA Eastmain River Airport 12 18 15 24/9 29.50 CZEM 171900Z 21012G18KT 15SM SCT040 OVC130 24/09 A2950 RMK SC4AC4 SLP991 DENSITY ALT 1600FT
YNC CYNC Wemindji, CA Wemindji Airport 11 18 15 20/6 29.50 CYNC 171900Z 20011G18KT 170V230 15SM SCT110 BKN150 BKN230 20/06 A2950 RMK AC4AS2CS1 SLP993 DENSITY ALT 1200FT
YMO CYMO Moosonee, CA Moosonee Airport 6 9 19/13 29.51 CYMO 172003Z AUTO 22006KT 9SM BKN060 BKN073 OVC099 19/13 A2951 RMK LTNG DIST S SLP994 DENSITY ALT 1000FT
YUX CYUX Hall Beach, CA Hall Beach Airport 11 2 2/1 29.51 CYUX 171947Z 35011KT 2SM BR OVC003 02/01 A2951 RMK ST8 SLP997
YGT CYGT Igloolik, CA Igloolik Airport 7 15 2/2 29.51 CYGT 171922Z 36007KT 15SM BKN008 OVC011 02/02 A2951 RMK SC6SC2 SLP998

High pressure

Station
 
Location
 
Name
 
Wind
Knots
Gust
Knots
Vis
SM
Temp/Dew
C
Baro
inHg
METAR
 
K0CO 19 10 16/7 30.74 K0CO 171955Z AUTO 32019KT 10SM BKN100 16/07 A3074 RMK AO2
KCPW 13 16 10 22/-2 30.72 KCPW 171955Z AUTO 18013G16KT 10SM SCT080 SCT110 22/M02 A3072 RMK AO2
KCCU 15 22 22/-6 30.71 KCCU 171955Z AUTO 30015G22KT BKN100 22/M06 A3071 RMK AO2 PWINO
K4BM 0 10 21/-8 30.66 K4BM 171955Z AUTO 00000KT 10SM BKN110 21/M08 A3066 RMK AO2
K5SM 4 10 23/-3 30.62 K5SM 171955Z AUTO 27004KT 10SM 23/M03 A3062 RMK AO2

Station
 
Location
 
Name
 
Wind
Knots
Gust
Knots
Vis
SM
Temp/Dew
C
Baro
inHg
METAR
 
KC99 9 17 10 20/-3 30.60 KC99 171955Z AUTO 29009G17KT 10SM BKN110 20/M03 A3060 RMK AO2 LTG DSNT NE
KC07 6 10 23/0 30.59 KC07 171955Z AUTO 24006KT 10SM CLR 23/00 A3059 RMK AO2
LPB SLLP La Paz / El Alto, BO El Alto International Airport 14 26 6.21 15/-4 30.53 SLLP 171900Z 28014G26KT 250V310 9999 SCT020 SCT200 15/M04 Q1034
ANS SPHY Andahuaylas, PE Andahuaylas Airport 6 6.21 11/5 30.53 SPHY 171900Z 35006KT 9999 SCT012 BKN090 11/05 Q1034 RMK BIRD HAZARD RWY03/21 PP000
KVTP 4 10 25/0 30.53 KVTP 171955Z AUTO 11004KT 10SM CLR 25/00 A3053 RMK AO2
LIMH IT Pian Rosà 12 6.21 -5/-6 30.50 LIMH 171855Z 12012KT 9999 FEW000TCU M05/M06 Q1033 RMK BKN SCT100 MON CLD SCT VAL CLD SCT VIS MIN 9999
LXV KLXV Leadville, US Lake County Airport 11 18 10 25/-5 30.48 KLXV 171953Z AUTO 31011G18KT 240V330 10SM FEW120 26/M06 A3048 RMK AO2 SLP115 T02561056
K7BM 9 10 25/-6 30.48 K7BM 171955Z AUTO 15009KT 10SM BKN110 25/M06 A3048 RMK AO2
EPR YESP Esperance, AU Esperance Airport 5 6.21 11/10 30.44 YESP 171900Z AUTO 33005KT 9999 // OVC042 11/10 Q1031
TEX KTEX Telluride, US Telluride Regional Airport 5 10 27/-3 30.44 KTEX 171955Z AUTO 27005KT 10SM CLR 27/M03 A3044 RMK AO2 LTG DSNT S
TUA SETU Tulcán, EC Teniente Coronel Luis a Mantilla Airport 8 6.21 14/10 30.41 SETU 172000Z 08008KT 9999 BKN020 14/10 Q1030
ALH YABA Albany, AU Albany Airport 5 6.21 4/4 30.41 YABA 172000Z AUTO 36005KT 9999 // NCD 04/04 Q1030
KGI YPKG Kalgoorlie, AU Kalgoorlie Boulder Airport 5 6.21 4/2 30.41 YPKG 172000Z AUTO 15005KT 9999 // NCD 04/02 Q1030 RF00.0/000.0
AEP SABE Buenos Aires, AR Jorge Newbery Airpark 3 6.21 10/-1 30.38 SABE 172000Z 17003KT 130V210 9999 SCT040 10/M01 Q1029 NOSIG
EZE SAEZ Buenos Aires, AR Ministro Pistarini International Airport 7 6.21 9/0 30.38 SAEZ 172000Z 24007KT 9999 SCT044 09/M00 Q1029 NOSIG
CRD SAVC Comodoro Rivadavia, AR General E. Mosconi Airport 6 6.21 8/0 30.38 SAVC 172000Z 35006KT CAVOK 08/M00 Q1029
MDQ SAZM Mar del Plata, AR Ástor Piazzola International Airport 4 4.97 7/5 30.38 SAZM 172000Z 23004KT 8000 SHRA SCT031 FEW045CB 07/05 Q1029
BQB YBLN AU Busselton Regional Airport 8 6.21 6/6 30.38 YBLN 172000Z AUTO 07008KT 9999 // NCD 06/06 Q1029 RF00.0/000.0
FOS YFRT AU Forrest Airport 9 6.21 6/5 30.38 YFRT 172000Z AUTO 23009KT 9999 // NCD 06/05 Q1029 RF00.0/000.0
YPEA Bullsbrook, AU RAAF Base Pearce 2 6.21 9/5 30.38 YPEA 172000Z AUTO 31002KT 9999 // NCD 09/05 Q1029
JAD YPJT Perth, AU Perth Jandakot Airport 4 6.21 5/5 30.38 YPJT 172000Z AUTO 10004KT 9999 // NCD 05/05 Q1029 RF00.0/000.0
PER YPPH Perth, AU Perth International Airport 9 6.21 9/5 30.38 YPPH 172000Z 06009KT CAVOK 09/05 Q1029
AXX KAXX Angel Fire, US Angel Fire Airport 7 10 27/4 30.37 KAXX 171955Z AUTO 19007KT 10SM CLR 27/04 A3037 RMK AO2 T02700040
BSF PHSF Camp Pohakuloa, US Bradshaw Army Airfield 12 10 21/6 30.37 PHSF 171958Z AUTO 14012KT 10SM CLR 22/06 A3037 RMK AO2 SLP150 T02180062 TSNO $
LIVC 7 13/11 30.35 LIVC 171855Z AUTO 20007KT //// 13/11 Q1028
JNB FAOR Johannesburg, ZA OR Tambo International Airport 4 6.21 14/0 30.35 FAOR 172000Z 25004KT CAVOK 14/M00 Q1028 NOSIG
FVRG 6 6.21 11/6 30.35 FVRG 172000Z 05006KT CAVOK 11/06 Q1028 NOSIG
FDO SADF San Fernando, AR San Fernando Airport 5 6.21 9/-1 30.35 SADF 172000Z 21005KT 150V230 9999 SCT047 09/M01 Q1028
CUZ SPZO Cusco, PE Alejandro Velasco Astete International Airport 4 6.21 18/0 30.35 SPZO 172000Z VRB04KT 9999 SCT050 18/M00 Q1028 NOSIG RMK BIRD HAZARD RWY 28 PP000
SUAA Montevideo, UY Angel S Adami Airport 6 6.21 10/2 30.35 SUAA 172000Z 18006KT 9999 BKN020 10/02 Q1028
CYR SUCA Colonia del Sacramento, UY Laguna de Los Patos International Airport 5 6.21 9/1 30.35 SUCA 172000Z 20005KT 9999 BKN026 09/01 Q1028
MVD SUMU Montevideo, UY Carrasco International /General C L Berisso Airport 6 6.21 9/1 30.35 SUMU 172000Z 19006KT 9999 SCT033 09/01 Q1028 NOSIG
KGNB Granby, US Granby Grand County Airport 9 14 29/-2 30.35 KGNB 171955Z AUTO 21009G14KT CLR 29/M03 A3035 RMK AO2 T02901026 PWINO
K33V 10 25 10 30/-5 30.34 K33V 171955Z AUTO 27010G25KT 10SM CLR 30/M05 A3034 RMK AO2 T03031052
BCE KBCE Bryce Canyon, US Bryce Canyon Airport 9 26 10 27/-3 30.33 KBCE 171953Z AUTO 25009G26KT 10SM FEW070 BKN090 BKN110 28/M03 A3033 RMK AO2 PK WND 20037/1942 SLP137 T02781033
SLT KANK Salida, US Salida Airport Harriett Alexander Field 0 10 30/-3 30.33 KANK 171955Z AUTO 00000KT 10SM CLR 31/M04 A3033 RMK AO1 T03081038
KRCV 0 28/0 30.33 KRCV 171955Z AUTO 00000KT CLR 29/00 A3033 RMK AO2 T02880003 PWINO
HLA FALA Johannesburg, ZA Lanseria Airport 2 14/1 30.32 FALA 171900Z AUTO VRB02KT //// // ////// 14/01 Q1027
WKF FAWK Pretoria, ZA Waterkloof Air Force Base 1 11/1 30.32 FAWK 171900Z AUTO 12001KT //// // ////// 11/01 Q1027
GOG FYGB Gobabis, NA Gobabis Airport 4 15 13/0 30.32 FYGB 171900Z AUTO 22004G15KT //// // ////// 13/M00 Q1027
EDL HKEL Eldoret, KE Eldoret International Airport 3 6.21 15/13 30.32 HKEL 171900Z 19003KT 9999 FEW015 FEW018CB BKN080 15/13 Q1027
SUT HTSU Sumbawanga, TZ Sumbawanga Airport 0 6.21 16/11 30.32 HTSU 171900Z 00000KT 9999 FEW020 16/11 Q1027
CHH SPPY Chachapoyas, PE Chachapoyas Airport 14 6.21 16/10 30.32 SPPY 171900Z 11014KT 9999 SCT025 SCT050 16/10 Q1027 RMK PP000
MKR YMEK AU Meekatharra Airport 11 6.21 9/4 30.32 YMEK 171900Z AUTO 10011KT 9999 // NCD 09/04 Q1027
TER LPLA Praia da Vitória, PT Lajes Airport 6.21 21/12 30.32 LPLA 172000Z /////KT 9999 FEW025 21/12 Q1027